sensor_id;sensor_type;location;lat;lon;timestamp;P1;durP1;ratioP1;P2;durP2;ratioP2
71562;SDS011;59391;52.504;13.438;2023-05-17T00:02:06;7.03;;;2.85;;
71562;SDS011;59391;52.504;13.438;2023-05-17T00:04:32;7.20;;;2.40;;
71562;SDS011;59391;52.504;13.438;2023-05-17T00:06:58;8.02;;;2.80;;
71562;SDS011;59391;52.504;13.438;2023-05-17T00:09:23;7.77;;;2.93;;
71562;SDS011;59391;52.504;13.438;2023-05-17T00:11:49;6.93;;;2.90;;
71562;SDS011;59391;52.504;13.438;2023-05-17T00:14:15;8.00;;;2.80;;
71562;SDS011;59391;52.504;13.438;2023-05-17T00:16:40;9.02;;;2.75;;
71562;SDS011;59391;52.504;13.438;2023-05-17T00:19:06;7.43;;;2.73;;
71562;SDS011;59391;52.504;13.438;2023-05-17T00:21:33;7.78;;;2.90;;
71562;SDS011;59391;52.504;13.438;2023-05-17T00:23:59;8.10;;;3.28;;
71562;SDS011;59391;52.504;13.438;2023-05-17T00:26:25;8.27;;;3.50;;
71562;SDS011;59391;52.504;13.438;2023-05-17T00:28:51;7.28;;;3.10;;
71562;SDS011;59391;52.504;13.438;2023-05-17T00:31:16;8.20;;;3.27;;
71562;SDS011;59391;52.504;13.438;2023-05-17T00:33:45;6.83;;;2.97;;
71562;SDS011;59391;52.504;13.438;2023-05-17T00:36:11;7.75;;;3.17;;
71562;SDS011;59391;52.504;13.438;2023-05-17T00:38:37;7.07;;;3.08;;
71562;SDS011;59391;52.504;13.438;2023-05-17T00:41:02;9.03;;;3.37;;
71562;SDS011;59391;52.504;13.438;2023-05-17T00:43:28;9.43;;;3.73;;
71562;SDS011;59391;52.504;13.438;2023-05-17T00:45:54;9.25;;;3.47;;
71562;SDS011;59391;52.504;13.438;2023-05-17T00:48:19;7.00;;;3.67;;
71562;SDS011;59391;52.504;13.438;2023-05-17T00:50:45;8.50;;;3.95;;
71562;SDS011;59391;52.504;13.438;2023-05-17T00:53:12;10.87;;;3.60;;
71562;SDS011;59391;52.504;13.438;2023-05-17T00:55:41;7.93;;;3.45;;
71562;SDS011;59391;52.504;13.438;2023-05-17T00:58:08;10.40;;;3.58;;
71562;SDS011;59391;52.504;13.438;2023-05-17T01:00:38;9.88;;;4.15;;
71562;SDS011;59391;52.504;13.438;2023-05-17T01:03:04;8.45;;;3.65;;
71562;SDS011;59391;52.504;13.438;2023-05-17T01:05:30;9.53;;;3.37;;
71562;SDS011;59391;52.504;13.438;2023-05-17T01:07:55;8.40;;;3.55;;
71562;SDS011;59391;52.504;13.438;2023-05-17T01:10:39;8.33;;;3.37;;
71562;SDS011;59391;52.504;13.438;2023-05-17T01:13:26;12.13;;;3.88;;
71562;SDS011;59391;52.504;13.438;2023-05-17T01:16:17;9.02;;;3.85;;
71562;SDS011;59391;52.504;13.438;2023-05-17T01:19:11;8.45;;;3.88;;
71562;SDS011;59391;52.504;13.438;2023-05-17T01:22:12;10.18;;;4.20;;
71562;SDS011;59391;52.504;13.438;2023-05-17T01:27:38;10.40;;;3.58;;
71562;SDS011;59391;52.504;13.438;2023-05-17T01:30:09;12.40;;;4.00;;
71562;SDS011;59391;52.504;13.438;2023-05-17T01:32:38;12.18;;;4.40;;
71562;SDS011;59391;52.504;13.438;2023-05-17T01:35:07;8.75;;;3.95;;
71562;SDS011;59391;52.504;13.438;2023-05-17T01:37:34;9.70;;;4.00;;
71562;SDS011;59391;52.504;13.438;2023-05-17T01:40:00;10.25;;;4.00;;
71562;SDS011;59391;52.504;13.438;2023-05-17T01:42:28;9.20;;;4.27;;
71562;SDS011;59391;52.504;13.438;2023-05-17T01:44:59;13.90;;;4.32;;
71562;SDS011;59391;52.504;13.438;2023-05-17T01:47:42;12.38;;;3.85;;
71562;SDS011;59391;52.504;13.438;2023-05-17T01:50:28;9.23;;;3.70;;
71562;SDS011;59391;52.504;13.438;2023-05-17T01:53:06;11.55;;;4.20;;
71562;SDS011;59391;52.504;13.438;2023-05-17T01:55:42;10.50;;;4.27;;
71562;SDS011;59391;52.504;13.438;2023-05-17T01:58:20;10.50;;;3.97;;
71562;SDS011;59391;52.504;13.438;2023-05-17T02:00:51;8.32;;;3.67;;
71562;SDS011;59391;52.504;13.438;2023-05-17T02:03:20;12.40;;;4.03;;
71562;SDS011;59391;52.504;13.438;2023-05-17T02:05:46;9.23;;;4.30;;
71562;SDS011;59391;52.504;13.438;2023-05-17T02:08:12;11.50;;;4.43;;
71562;SDS011;59391;52.504;13.438;2023-05-17T02:10:38;11.25;;;4.30;;
71562;SDS011;59391;52.504;13.438;2023-05-17T02:13:04;10.90;;;4.47;;
71562;SDS011;59391;52.504;13.438;2023-05-17T02:15:30;10.25;;;4.45;;
71562;SDS011;59391;52.504;13.438;2023-05-17T02:17:56;11.65;;;4.32;;
71562;SDS011;59391;52.504;13.438;2023-05-17T02:20:21;13.10;;;4.73;;
71562;SDS011;59391;52.504;13.438;2023-05-17T02:22:47;10.40;;;4.55;;
71562;SDS011;59391;52.504;13.438;2023-05-17T02:25:13;11.10;;;4.67;;
71562;SDS011;59391;52.504;13.438;2023-05-17T02:27:40;13.13;;;5.10;;
71562;SDS011;59391;52.504;13.438;2023-05-17T02:30:05;14.43;;;4.65;;
71562;SDS011;59391;52.504;13.438;2023-05-17T02:32:32;12.50;;;4.40;;
71562;SDS011;59391;52.504;13.438;2023-05-17T02:34:57;11.20;;;4.32;;
71562;SDS011;59391;52.504;13.438;2023-05-17T02:37:23;10.10;;;4.40;;
71562;SDS011;59391;52.504;13.438;2023-05-17T02:39:49;12.00;;;4.57;;
71562;SDS011;59391;52.504;13.438;2023-05-17T02:42:15;9.80;;;4.30;;
71562;SDS011;59391;52.504;13.438;2023-05-17T02:44:41;10.80;;;4.30;;
71562;SDS011;59391;52.504;13.438;2023-05-17T02:47:06;9.70;;;4.30;;
71562;SDS011;59391;52.504;13.438;2023-05-17T02:49:32;10.80;;;4.22;;
71562;SDS011;59391;52.504;13.438;2023-05-17T02:51:57;10.97;;;4.43;;
71562;SDS011;59391;52.504;13.438;2023-05-17T02:54:24;13.55;;;4.35;;
71562;SDS011;59391;52.504;13.438;2023-05-17T02:56:50;8.48;;;4.30;;
71562;SDS011;59391;52.504;13.438;2023-05-17T02:59:16;10.23;;;4.23;;
71562;SDS011;59391;52.504;13.438;2023-05-17T03:01:41;12.85;;;4.60;;
71562;SDS011;59391;52.504;13.438;2023-05-17T03:04:07;14.07;;;4.87;;
71562;SDS011;59391;52.504;13.438;2023-05-17T03:06:33;11.67;;;4.00;;
71562;SDS011;59391;52.504;13.438;2023-05-17T03:08:58;14.77;;;5.30;;
71562;SDS011;59391;52.504;13.438;2023-05-17T03:11:24;13.07;;;5.07;;
71562;SDS011;59391;52.504;13.438;2023-05-17T03:13:50;10.48;;;4.63;;
71562;SDS011;59391;52.504;13.438;2023-05-17T03:16:16;11.95;;;4.70;;
71562;SDS011;59391;52.504;13.438;2023-05-17T03:18:42;10.70;;;3.97;;
71562;SDS011;59391;52.504;13.438;2023-05-17T03:21:08;14.98;;;4.60;;
71562;SDS011;59391;52.504;13.438;2023-05-17T03:23:34;13.33;;;4.67;;
71562;SDS011;59391;52.504;13.438;2023-05-17T03:25:59;11.40;;;5.32;;
71562;SDS011;59391;52.504;13.438;2023-05-17T03:28:25;13.27;;;4.93;;
71562;SDS011;59391;52.504;13.438;2023-05-17T03:30:50;12.30;;;4.70;;
71562;SDS011;59391;52.504;13.438;2023-05-17T03:33:17;11.50;;;5.13;;
71562;SDS011;59391;52.504;13.438;2023-05-17T03:35:43;15.98;;;4.97;;
71562;SDS011;59391;52.504;13.438;2023-05-17T03:38:10;15.45;;;5.57;;
71562;SDS011;59391;52.504;13.438;2023-05-17T03:40:36;14.65;;;5.15;;
71562;SDS011;59391;52.504;13.438;2023-05-17T03:43:02;11.50;;;4.73;;
71562;SDS011;59391;52.504;13.438;2023-05-17T03:45:28;12.02;;;4.57;;
71562;SDS011;59391;52.504;13.438;2023-05-17T03:47:53;15.97;;;5.23;;
71562;SDS011;59391;52.504;13.438;2023-05-17T03:50:19;10.55;;;4.90;;
71562;SDS011;59391;52.504;13.438;2023-05-17T03:52:45;15.10;;;5.43;;
71562;SDS011;59391;52.504;13.438;2023-05-17T03:55:11;11.50;;;4.18;;
71562;SDS011;59391;52.504;13.438;2023-05-17T03:57:39;15.88;;;5.15;;
71562;SDS011;59391;52.504;13.438;2023-05-17T04:00:04;10.93;;;4.60;;
71562;SDS011;59391;52.504;13.438;2023-05-17T04:02:34;13.98;;;5.15;;
71562;SDS011;59391;52.504;13.438;2023-05-17T04:05:02;13.27;;;5.13;;
71562;SDS011;59391;52.504;13.438;2023-05-17T04:07:28;16.38;;;4.93;;
71562;SDS011;59391;52.504;13.438;2023-05-17T04:09:55;11.15;;;4.35;;
71562;SDS011;59391;52.504;13.438;2023-05-17T04:12:26;12.50;;;4.85;;
71562;SDS011;59391;52.504;13.438;2023-05-17T04:14:52;12.10;;;4.88;;
71562;SDS011;59391;52.504;13.438;2023-05-17T04:17:18;12.83;;;4.87;;
71562;SDS011;59391;52.504;13.438;2023-05-17T04:19:43;13.15;;;4.90;;
71562;SDS011;59391;52.504;13.438;2023-05-17T04:22:09;14.27;;;4.87;;
71562;SDS011;59391;52.504;13.438;2023-05-17T04:24:35;11.05;;;4.60;;
71562;SDS011;59391;52.504;13.438;2023-05-17T04:27:00;13.17;;;5.00;;
71562;SDS011;59391;52.504;13.438;2023-05-17T04:29:29;13.40;;;5.30;;
71562;SDS011;59391;52.504;13.438;2023-05-17T04:31:55;12.57;;;5.40;;
71562;SDS011;59391;52.504;13.438;2023-05-17T04:34:20;12.43;;;5.32;;
71562;SDS011;59391;52.504;13.438;2023-05-17T04:36:47;12.18;;;4.90;;
71562;SDS011;59391;52.504;13.438;2023-05-17T04:39:13;14.93;;;5.23;;
71562;SDS011;59391;52.504;13.438;2023-05-17T04:41:38;13.90;;;5.32;;
71562;SDS011;59391;52.504;13.438;2023-05-17T04:44:05;11.73;;;4.73;;
71562;SDS011;59391;52.504;13.438;2023-05-17T04:46:33;16.05;;;5.30;;
71562;SDS011;59391;52.504;13.438;2023-05-17T04:48:59;14.95;;;5.50;;
71562;SDS011;59391;52.504;13.438;2023-05-17T04:51:26;13.70;;;5.40;;
71562;SDS011;59391;52.504;13.438;2023-05-17T04:53:53;14.82;;;5.18;;
71562;SDS011;59391;52.504;13.438;2023-05-17T04:56:19;13.55;;;4.95;;
71562;SDS011;59391;52.504;13.438;2023-05-17T04:58:44;9.90;;;4.82;;
71562;SDS011;59391;52.504;13.438;2023-05-17T05:01:10;13.80;;;5.37;;
71562;SDS011;59391;52.504;13.438;2023-05-17T05:03:36;12.45;;;4.88;;
71562;SDS011;59391;52.504;13.438;2023-05-17T05:06:01;14.20;;;5.40;;
71562;SDS011;59391;52.504;13.438;2023-05-17T05:08:31;13.48;;;4.80;;
71562;SDS011;59391;52.504;13.438;2023-05-17T05:11:01;18.40;;;5.90;;
71562;SDS011;59391;52.504;13.438;2023-05-17T05:13:27;13.52;;;4.85;;
71562;SDS011;59391;52.504;13.438;2023-05-17T05:15:53;23.70;;;9.83;;
71562;SDS011;59391;52.504;13.438;2023-05-17T05:18:19;13.48;;;5.00;;
71562;SDS011;59391;52.504;13.438;2023-05-17T05:20:47;13.97;;;5.13;;
71562;SDS011;59391;52.504;13.438;2023-05-17T05:23:13;15.05;;;4.78;;
71562;SDS011;59391;52.504;13.438;2023-05-17T05:25:39;11.32;;;4.28;;
71562;SDS011;59391;52.504;13.438;2023-05-17T05:28:05;13.00;;;4.65;;
71562;SDS011;59391;52.504;13.438;2023-05-17T05:30:31;11.05;;;4.28;;
71562;SDS011;59391;52.504;13.438;2023-05-17T05:32:57;14.50;;;4.40;;
71562;SDS011;59391;52.504;13.438;2023-05-17T05:35:22;13.20;;;4.30;;
71562;SDS011;59391;52.504;13.438;2023-05-17T05:37:53;15.10;;;4.43;;
71562;SDS011;59391;52.504;13.438;2023-05-17T05:40:19;10.47;;;4.17;;
71562;SDS011;59391;52.504;13.438;2023-05-17T05:42:44;16.30;;;4.20;;
71562;SDS011;59391;52.504;13.438;2023-05-17T05:45:10;13.13;;;4.73;;
71562;SDS011;59391;52.504;13.438;2023-05-17T05:47:36;14.50;;;5.13;;
71562;SDS011;59391;52.504;13.438;2023-05-17T05:50:03;13.37;;;4.80;;
71562;SDS011;59391;52.504;13.438;2023-05-17T05:52:30;12.75;;;4.65;;
71562;SDS011;59391;52.504;13.438;2023-05-17T05:54:56;16.60;;;4.93;;
71562;SDS011;59391;52.504;13.438;2023-05-17T05:57:21;18.27;;;5.60;;
71562;SDS011;59391;52.504;13.438;2023-05-17T05:59:47;12.07;;;4.38;;
71562;SDS011;59391;52.504;13.438;2023-05-17T06:02:12;17.87;;;4.20;;
71562;SDS011;59391;52.504;13.438;2023-05-17T06:04:38;11.47;;;4.57;;
71562;SDS011;59391;52.504;13.438;2023-05-17T06:07:06;11.00;;;3.67;;
71562;SDS011;59391;52.504;13.438;2023-05-17T06:09:31;13.30;;;3.90;;
71562;SDS011;59391;52.504;13.438;2023-05-17T06:11:57;12.97;;;4.10;;
71562;SDS011;59391;52.504;13.438;2023-05-17T06:14:23;14.80;;;3.90;;
71562;SDS011;59391;52.504;13.438;2023-05-17T06:16:48;11.93;;;3.70;;
71562;SDS011;59391;52.504;13.438;2023-05-17T06:19:14;14.60;;;4.00;;
71562;SDS011;59391;52.504;13.438;2023-05-17T06:21:40;15.60;;;3.95;;
71562;SDS011;59391;52.504;13.438;2023-05-17T06:24:05;13.63;;;4.17;;
71562;SDS011;59391;52.504;13.438;2023-05-17T06:26:31;11.52;;;3.88;;
71562;SDS011;59391;52.504;13.438;2023-05-17T06:28:57;9.63;;;3.77;;
71562;SDS011;59391;52.504;13.438;2023-05-17T06:31:22;15.73;;;3.78;;
71562;SDS011;59391;52.504;13.438;2023-05-17T06:33:48;9.13;;;3.33;;
71562;SDS011;59391;52.504;13.438;2023-05-17T06:36:14;12.50;;;4.00;;
71562;SDS011;59391;52.504;13.438;2023-05-17T06:38:40;15.33;;;4.03;;
71562;SDS011;59391;52.504;13.438;2023-05-17T06:41:05;10.93;;;3.70;;
71562;SDS011;59391;52.504;13.438;2023-05-17T06:43:31;10.97;;;3.20;;
71562;SDS011;59391;52.504;13.438;2023-05-17T06:45:56;13.23;;;4.40;;
71562;SDS011;59391;52.504;13.438;2023-05-17T06:48:22;12.85;;;4.13;;
71562;SDS011;59391;52.504;13.438;2023-05-17T06:50:48;10.13;;;3.65;;
71562;SDS011;59391;52.504;13.438;2023-05-17T06:53:13;12.07;;;3.53;;
71562;SDS011;59391;52.504;13.438;2023-05-17T06:55:42;10.38;;;2.97;;
71562;SDS011;59391;52.504;13.438;2023-05-17T06:58:07;13.32;;;3.80;;
71562;SDS011;59391;52.504;13.438;2023-05-17T07:00:33;10.55;;;3.50;;
71562;SDS011;59391;52.504;13.438;2023-05-17T07:03:00;11.00;;;3.30;;
71562;SDS011;59391;52.504;13.438;2023-05-17T07:05:26;9.77;;;3.20;;
71562;SDS011;59391;52.504;13.438;2023-05-17T07:07:53;8.20;;;3.40;;
71562;SDS011;59391;52.504;13.438;2023-05-17T07:10:18;11.02;;;3.20;;
71562;SDS011;59391;52.504;13.438;2023-05-17T07:12:44;9.15;;;3.17;;
71562;SDS011;59391;52.504;13.438;2023-05-17T07:15:12;11.23;;;3.60;;
71562;SDS011;59391;52.504;13.438;2023-05-17T07:17:38;13.17;;;3.37;;
71562;SDS011;59391;52.504;13.438;2023-05-17T07:20:04;13.52;;;3.42;;
71562;SDS011;59391;52.504;13.438;2023-05-17T07:22:30;11.23;;;3.30;;
71562;SDS011;59391;52.504;13.438;2023-05-17T07:24:56;14.90;;;3.27;;
71562;SDS011;59391;52.504;13.438;2023-05-17T07:27:22;14.57;;;3.23;;
71562;SDS011;59391;52.504;13.438;2023-05-17T07:29:47;11.02;;;3.20;;
71562;SDS011;59391;52.504;13.438;2023-05-17T07:32:13;12.87;;;3.33;;
71562;SDS011;59391;52.504;13.438;2023-05-17T07:34:39;13.00;;;3.40;;
71562;SDS011;59391;52.504;13.438;2023-05-17T07:37:05;8.65;;;3.20;;
71562;SDS011;59391;52.504;13.438;2023-05-17T07:39:31;7.83;;;3.30;;
71562;SDS011;59391;52.504;13.438;2023-05-17T07:41:56;10.57;;;3.28;;
71562;SDS011;59391;52.504;13.438;2023-05-17T07:44:22;14.63;;;3.90;;
71562;SDS011;59391;52.504;13.438;2023-05-17T07:46:48;13.10;;;3.07;;
71562;SDS011;59391;52.504;13.438;2023-05-17T07:49:13;11.43;;;3.30;;
71562;SDS011;59391;52.504;13.438;2023-05-17T07:51:39;11.77;;;3.53;;
71562;SDS011;59391;52.504;13.438;2023-05-17T07:54:05;10.13;;;3.17;;
71562;SDS011;59391;52.504;13.438;2023-05-17T07:56:31;9.20;;;3.03;;
71562;SDS011;59391;52.504;13.438;2023-05-17T07:58:57;10.65;;;3.33;;
71562;SDS011;59391;52.504;13.438;2023-05-17T08:01:23;11.93;;;3.08;;
71562;SDS011;59391;52.504;13.438;2023-05-17T08:03:50;11.48;;;3.15;;
71562;SDS011;59391;52.504;13.438;2023-05-17T08:06:16;12.23;;;3.77;;
71562;SDS011;59391;52.504;13.438;2023-05-17T08:08:42;9.57;;;3.00;;
71562;SDS011;59391;52.504;13.438;2023-05-17T08:11:08;11.52;;;3.45;;
71562;SDS011;59391;52.504;13.438;2023-05-17T08:13:36;8.98;;;3.30;;
71562;SDS011;59391;52.504;13.438;2023-05-17T08:16:02;9.23;;;2.80;;
71562;SDS011;59391;52.504;13.438;2023-05-17T08:18:31;11.98;;;3.10;;
71562;SDS011;59391;52.504;13.438;2023-05-17T08:20:58;10.02;;;3.00;;
71562;SDS011;59391;52.504;13.438;2023-05-17T08:23:24;10.50;;;3.15;;
71562;SDS011;59391;52.504;13.438;2023-05-17T08:25:52;10.63;;;3.45;;
71562;SDS011;59391;52.504;13.438;2023-05-17T08:28:18;10.73;;;2.70;;
71562;SDS011;59391;52.504;13.438;2023-05-17T08:30:44;11.27;;;2.50;;
71562;SDS011;59391;52.504;13.438;2023-05-17T08:33:09;10.68;;;2.90;;
71562;SDS011;59391;52.504;13.438;2023-05-17T08:35:35;8.52;;;2.60;;
71562;SDS011;59391;52.504;13.438;2023-05-17T08:38:01;10.90;;;3.13;;
71562;SDS011;59391;52.504;13.438;2023-05-17T08:40:27;11.35;;;3.03;;
71562;SDS011;59391;52.504;13.438;2023-05-17T08:42:53;12.70;;;3.00;;
71562;SDS011;59391;52.504;13.438;2023-05-17T08:45:19;16.20;;;2.85;;
71562;SDS011;59391;52.504;13.438;2023-05-17T08:47:46;10.18;;;3.28;;
71562;SDS011;59391;52.504;13.438;2023-05-17T08:50:13;12.50;;;2.95;;
71562;SDS011;59391;52.504;13.438;2023-05-17T08:52:39;11.60;;;3.10;;
71562;SDS011;59391;52.504;13.438;2023-05-17T08:55:08;23.70;;;13.00;;
71562;SDS011;59391;52.504;13.438;2023-05-17T08:57:34;10.95;;;2.80;;
71562;SDS011;59391;52.504;13.438;2023-05-17T09:00:02;10.30;;;3.22;;
71562;SDS011;59391;52.504;13.438;2023-05-17T09:02:39;10.63;;;3.00;;
71562;SDS011;59391;52.504;13.438;2023-05-17T09:05:06;8.40;;;2.80;;
71562;SDS011;59391;52.504;13.438;2023-05-17T09:07:34;9.75;;;2.78;;
71562;SDS011;59391;52.504;13.438;2023-05-17T09:10:01;10.70;;;2.85;;
71562;SDS011;59391;52.504;13.438;2023-05-17T09:12:31;10.45;;;3.05;;
71562;SDS011;59391;52.504;13.438;2023-05-17T09:15:18;10.87;;;2.87;;
71562;SDS011;59391;52.504;13.438;2023-05-17T09:17:54;7.88;;;2.50;;
71562;SDS011;59391;52.504;13.438;2023-05-17T09:20:22;8.27;;;2.45;;
71562;SDS011;59391;52.504;13.438;2023-05-17T09:22:50;10.35;;;2.78;;
71562;SDS011;59391;52.504;13.438;2023-05-17T09:25:19;11.48;;;2.80;;
71562;SDS011;59391;52.504;13.438;2023-05-17T09:27:51;11.30;;;3.13;;
71562;SDS011;59391;52.504;13.438;2023-05-17T09:30:17;10.77;;;2.50;;
71562;SDS011;59391;52.504;13.438;2023-05-17T09:32:43;10.27;;;2.47;;
71562;SDS011;59391;52.504;13.438;2023-05-17T09:35:12;9.15;;;2.60;;
71562;SDS011;59391;52.504;13.438;2023-05-17T09:37:38;11.90;;;2.70;;
71562;SDS011;59391;52.504;13.438;2023-05-17T09:40:06;7.80;;;2.40;;
71562;SDS011;59391;52.504;13.438;2023-05-17T09:42:33;12.38;;;3.40;;
71562;SDS011;59391;52.504;13.438;2023-05-17T09:45:01;12.18;;;2.70;;
71562;SDS011;59391;52.504;13.438;2023-05-17T09:47:28;7.53;;;2.30;;
71562;SDS011;59391;52.504;13.438;2023-05-17T09:49:56;10.98;;;2.60;;
71562;SDS011;59391;52.504;13.438;2023-05-17T09:52:26;9.10;;;2.60;;
71562;SDS011;59391;52.504;13.438;2023-05-17T09:54:56;6.50;;;2.50;;
71562;SDS011;59391;52.504;13.438;2023-05-17T09:57:24;9.85;;;2.65;;
71562;SDS011;59391;52.504;13.438;2023-05-17T09:59:55;9.77;;;2.40;;
71562;SDS011;59391;52.504;13.438;2023-05-17T10:02:24;9.32;;;2.58;;
71562;SDS011;59391;52.504;13.438;2023-05-17T10:04:56;9.73;;;2.50;;
71562;SDS011;59391;52.504;13.438;2023-05-17T10:07:25;9.23;;;2.67;;
71562;SDS011;59391;52.504;13.438;2023-05-17T10:09:52;8.60;;;2.17;;
71562;SDS011;59391;52.504;13.438;2023-05-17T10:12:20;8.82;;;2.33;;
71562;SDS011;59391;52.504;13.438;2023-05-17T10:14:47;14.15;;;2.90;;
71562;SDS011;59391;52.504;13.438;2023-05-17T10:17:15;11.57;;;2.58;;
71562;SDS011;59391;52.504;13.438;2023-05-17T10:19:43;11.95;;;2.92;;
71562;SDS011;59391;52.504;13.438;2023-05-17T10:22:10;9.23;;;2.57;;
71562;SDS011;59391;52.504;13.438;2023-05-17T10:24:37;9.20;;;2.50;;
71562;SDS011;59391;52.504;13.438;2023-05-17T10:27:04;7.72;;;2.33;;
71562;SDS011;59391;52.504;13.438;2023-05-17T10:29:33;8.98;;;2.20;;
71562;SDS011;59391;52.504;13.438;2023-05-17T10:32:03;9.02;;;2.10;;
71562;SDS011;59391;52.504;13.438;2023-05-17T10:34:32;9.07;;;2.50;;
71562;SDS011;59391;52.504;13.438;2023-05-17T10:37:00;9.48;;;2.13;;
71562;SDS011;59391;52.504;13.438;2023-05-17T10:39:28;9.68;;;2.65;;
71562;SDS011;59391;52.504;13.438;2023-05-17T10:41:58;10.63;;;2.70;;
71562;SDS011;59391;52.504;13.438;2023-05-17T10:44:27;9.60;;;2.60;;
71562;SDS011;59391;52.504;13.438;2023-05-17T10:46:58;9.63;;;3.60;;
71562;SDS011;59391;52.504;13.438;2023-05-17T10:49:29;8.20;;;2.00;;
71562;SDS011;59391;52.504;13.438;2023-05-17T10:51:58;8.73;;;2.20;;
71562;SDS011;59391;52.504;13.438;2023-05-17T10:54:37;9.43;;;2.65;;
71562;SDS011;59391;52.504;13.438;2023-05-17T10:57:06;12.48;;;2.50;;
71562;SDS011;59391;52.504;13.438;2023-05-17T10:59:32;8.67;;;2.40;;
71562;SDS011;59391;52.504;13.438;2023-05-17T11:02:05;8.52;;;1.95;;
71562;SDS011;59391;52.504;13.438;2023-05-17T11:04:52;9.52;;;2.33;;
71562;SDS011;59391;52.504;13.438;2023-05-17T11:07:21;10.60;;;2.55;;
71562;SDS011;59391;52.504;13.438;2023-05-17T11:12:30;8.87;;;2.20;;
71562;SDS011;59391;52.504;13.438;2023-05-17T11:14:59;9.60;;;2.75;;
71562;SDS011;59391;52.504;13.438;2023-05-17T11:17:34;7.07;;;2.00;;
71562;SDS011;59391;52.504;13.438;2023-05-17T11:23:02;8.10;;;2.45;;
71562;SDS011;59391;52.504;13.438;2023-05-17T11:25:31;7.03;;;2.03;;
71562;SDS011;59391;52.504;13.438;2023-05-17T11:28:03;10.73;;;2.25;;
71562;SDS011;59391;52.504;13.438;2023-05-17T11:30:44;10.38;;;2.45;;
71562;SDS011;59391;52.504;13.438;2023-05-17T11:33:17;8.05;;;2.45;;
71562;SDS011;59391;52.504;13.438;2023-05-17T11:35:45;12.70;;;3.00;;
71562;SDS011;59391;52.504;13.438;2023-05-17T11:38:12;8.80;;;2.40;;
71562;SDS011;59391;52.504;13.438;2023-05-17T11:40:46;9.65;;;2.90;;
71562;SDS011;59391;52.504;13.438;2023-05-17T11:43:15;11.98;;;2.92;;
71562;SDS011;59391;52.504;13.438;2023-05-17T11:45:44;8.80;;;3.05;;
71562;SDS011;59391;52.504;13.438;2023-05-17T11:48:15;14.93;;;5.43;;
71562;SDS011;59391;52.504;13.438;2023-05-17T11:50:43;9.40;;;2.60;;
71562;SDS011;59391;52.504;13.438;2023-05-17T11:53:12;9.48;;;2.45;;
71562;SDS011;59391;52.504;13.438;2023-05-17T11:58:12;6.68;;;2.08;;
71562;SDS011;59391;52.504;13.438;2023-05-17T12:00:41;9.50;;;2.72;;
71562;SDS011;59391;52.504;13.438;2023-05-17T12:03:14;8.00;;;2.13;;
71562;SDS011;59391;52.504;13.438;2023-05-17T12:06:01;7.55;;;2.28;;
71562;SDS011;59391;52.504;13.438;2023-05-17T12:08:30;8.55;;;2.20;;
71562;SDS011;59391;52.504;13.438;2023-05-17T12:10:58;10.25;;;2.22;;
71562;SDS011;59391;52.504;13.438;2023-05-17T12:13:26;9.65;;;2.40;;
71562;SDS011;59391;52.504;13.438;2023-05-17T12:15:57;7.17;;;2.43;;
71562;SDS011;59391;52.504;13.438;2023-05-17T12:18:36;8.63;;;2.20;;
71562;SDS011;59391;52.504;13.438;2023-05-17T12:21:05;9.30;;;2.50;;
71562;SDS011;59391;52.504;13.438;2023-05-17T12:23:33;13.82;;;2.80;;
71562;SDS011;59391;52.504;13.438;2023-05-17T12:28:38;8.03;;;2.50;;
71562;SDS011;59391;52.504;13.438;2023-05-17T12:31:31;10.32;;;2.80;;
71562;SDS011;59391;52.504;13.438;2023-05-17T12:34:08;9.85;;;2.72;;
71562;SDS011;59391;52.504;13.438;2023-05-17T12:36:37;9.55;;;2.50;;
71562;SDS011;59391;52.504;13.438;2023-05-17T12:39:04;11.77;;;2.30;;
71562;SDS011;59391;52.504;13.438;2023-05-17T12:41:33;6.47;;;3.00;;
71562;SDS011;59391;52.504;13.438;2023-05-17T12:44:02;7.93;;;2.78;;
71562;SDS011;59391;52.504;13.438;2023-05-17T12:46:29;11.93;;;2.90;;
71562;SDS011;59391;52.504;13.438;2023-05-17T12:48:59;11.23;;;3.13;;
71562;SDS011;59391;52.504;13.438;2023-05-17T12:51:39;8.77;;;2.60;;
71562;SDS011;59391;52.504;13.438;2023-05-17T12:54:07;7.20;;;2.50;;
71562;SDS011;59391;52.504;13.438;2023-05-17T12:56:34;7.88;;;2.38;;
71562;SDS011;59391;52.504;13.438;2023-05-17T13:01:41;11.07;;;2.43;;
71562;SDS011;59391;52.504;13.438;2023-05-17T13:04:11;8.32;;;2.65;;
71562;SDS011;59391;52.504;13.438;2023-05-17T13:09:16;7.43;;;2.30;;
71562;SDS011;59391;52.504;13.438;2023-05-17T13:11:53;10.98;;;3.38;;
71562;SDS011;59391;52.504;13.438;2023-05-17T13:14:36;6.63;;;2.17;;
71562;SDS011;59391;52.504;13.438;2023-05-17T13:17:04;7.72;;;2.42;;
71562;SDS011;59391;52.504;13.438;2023-05-17T13:19:32;8.38;;;2.60;;
71562;SDS011;59391;52.504;13.438;2023-05-17T13:21:59;7.97;;;2.53;;
71562;SDS011;59391;52.504;13.438;2023-05-17T13:24:26;8.93;;;2.60;;
71562;SDS011;59391;52.504;13.438;2023-05-17T13:26:52;11.97;;;3.23;;
71562;SDS011;59391;52.504;13.438;2023-05-17T13:29:18;8.15;;;2.40;;
71562;SDS011;59391;52.504;13.438;2023-05-17T13:31:44;7.90;;;2.40;;
71562;SDS011;59391;52.504;13.438;2023-05-17T13:34:11;9.15;;;2.78;;
71562;SDS011;59391;52.504;13.438;2023-05-17T13:36:36;9.37;;;2.90;;
71562;SDS011;59391;52.504;13.438;2023-05-17T13:39:02;9.23;;;3.00;;
71562;SDS011;59391;52.504;13.438;2023-05-17T13:41:28;10.80;;;2.83;;
71562;SDS011;59391;52.504;13.438;2023-05-17T13:43:54;8.77;;;2.83;;
71562;SDS011;59391;52.504;13.438;2023-05-17T13:46:21;8.30;;;2.60;;
71562;SDS011;59391;52.504;13.438;2023-05-17T13:48:47;9.23;;;2.47;;
71562;SDS011;59391;52.504;13.438;2023-05-17T13:51:13;8.90;;;3.50;;
71562;SDS011;59391;52.504;13.438;2023-05-17T13:53:38;9.52;;;2.47;;
71562;SDS011;59391;52.504;13.438;2023-05-17T13:56:05;10.02;;;2.70;;
71562;SDS011;59391;52.504;13.438;2023-05-17T13:58:31;9.07;;;2.42;;
71562;SDS011;59391;52.504;13.438;2023-05-17T14:00:57;8.20;;;3.00;;
71562;SDS011;59391;52.504;13.438;2023-05-17T14:03:23;9.15;;;2.53;;
71562;SDS011;59391;52.504;13.438;2023-05-17T14:05:49;9.63;;;2.67;;
71562;SDS011;59391;52.504;13.438;2023-05-17T14:08:16;7.93;;;2.30;;
71562;SDS011;59391;52.504;13.438;2023-05-17T14:10:43;8.02;;;2.55;;
71562;SDS011;59391;52.504;13.438;2023-05-17T14:13:10;10.77;;;3.13;;
71562;SDS011;59391;52.504;13.438;2023-05-17T14:15:36;8.52;;;3.05;;
71562;SDS011;59391;52.504;13.438;2023-05-17T14:18:03;10.57;;;2.40;;
71562;SDS011;59391;52.504;13.438;2023-05-17T14:20:30;10.05;;;2.40;;
71562;SDS011;59391;52.504;13.438;2023-05-17T14:22:56;8.80;;;2.58;;
71562;SDS011;59391;52.504;13.438;2023-05-17T14:25:23;8.35;;;2.40;;
71562;SDS011;59391;52.504;13.438;2023-05-17T14:27:49;8.75;;;2.55;;
71562;SDS011;59391;52.504;13.438;2023-05-17T14:30:16;10.07;;;2.60;;
71562;SDS011;59391;52.504;13.438;2023-05-17T14:32:41;9.27;;;2.40;;
71562;SDS011;59391;52.504;13.438;2023-05-17T14:35:07;10.17;;;2.90;;
71562;SDS011;59391;52.504;13.438;2023-05-17T14:37:33;8.75;;;2.40;;
71562;SDS011;59391;52.504;13.438;2023-05-17T14:39:59;8.25;;;2.40;;
71562;SDS011;59391;52.504;13.438;2023-05-17T14:42:25;11.33;;;2.60;;
71562;SDS011;59391;52.504;13.438;2023-05-17T14:44:51;7.97;;;2.38;;
71562;SDS011;59391;52.504;13.438;2023-05-17T14:47:17;9.68;;;4.40;;
71562;SDS011;59391;52.504;13.438;2023-05-17T14:49:45;10.90;;;3.42;;